Back to top

Williston, ND weather

Sioulin Field International Airport, Williston, ND: 5/26/2019 15:13
Visibility10 statute milessun with scattered clouds
View 7-Day Forecast
Area Summary
Sky/CloudsScattered at 2400ft
Weather [last 24 hours]None [rain began 21:41 ended 21:48 ]
Pressure30.05 in.Hg (1018 hPa)
Dew Point48.9 °F (9.4 °C)
Relative Humidity62.1 %
Last 24-Hour Precip.Trace
Reading TimePrecipitation
6-hr ending 5/26@00:52Trace
Temperature62.1 °F (16.7 °C)red thermometer
Reading TimeMinimum to Maximum Temperature
6-hr ending 5/26@12:5248.9 °F to 60.1 °F (9.4 °C to 15.6 °C)
6-hr ending 5/26@06:5243 °F to 50 °F (6.1 °C to 10 °C)
6-hr ending 5/26@00:5245 °F to 71.1 °F (7.2 °C to 21.7 °C)
6-hr ending 5/25@18:5266 °F to 73.9 °F (18.9 °C to 23.3 °C)
24-hr ending 5/26@00:5233.1 °F to 73.9 °F (0.6 °C to 23.3 °C)
Wind15 MPH (13 KT) gusting to 20.7 MPH (18 KT)green arrow pointing 90 degrees
Wind FromEast (090 Degrees)
Rolling 24-hr Peak Wind29.9 MPH (26 KT) on 5/26@13:47
Rolling 24-hr Peak Wind FromEast/Southeast (120 Degrees)
Twilight Begins05:21Sunshine Yesterday
Sunrise06:01N/A
Sunset21:43
Twilight Ends22:23
METARKISN 262013Z AUTO 09013G18KT 10SM SCT024 17/09 A3005 RMK AO2 T01670094
Tags: